CST,Max TemperatureF,Mean TemperatureF,Min TemperatureF,Max Dew PointF,MeanDew PointF,Min DewpointF,Max Humidity, Mean Humidity, Min Humidity, Max Sea Level PressureIn, Mean Sea Level PressureIn, Min Sea Level PressureIn, Max VisibilityMiles, Mean VisibilityMiles, Min VisibilityMiles, Max Wind SpeedMPH, Mean Wind SpeedMPH, Max Gust SpeedMPH,PrecipitationIn, CloudCover, Events, WindDirDegrees
2013-1-1,24,6,-11,25,5,-17,100,92,77,30.09,29.89,29.72,10,7,1,21,14,26,0.08,7,Snow,239
2013-1-2,26,13,0,27,9,-4,100,90,79,30.20,29.94,29.71,10,9,2,26,17,33,0.00,6,Rain-Snow,325
2013-1-3,23,12,1,18,10,0,100,87,79,30.19,29.98,29.83,10,10,3,25,14,31,0.00,3,Snow,254
2013-1-4,17,9,1,12,7,0,100,86,73,30.05,29.99,29.88,10,9,0,17,8,,0.00,0,Fog-Snow,327
2013-1-5,15,10,5,14,7,1,100,91,85,30.03,29.98,29.91,10,8,0,17,9,,0.00,6,Fog-Snow,344
2013-1-6,19,17,15,18,16,14,100,98,93,30.08,29.89,29.56,10,5,1,28,13,34,0.00,6,Snow,211
2013-1-7,26,17,6,25,19,5,100,89,80,29.78,29.65,29.54,10,9,2,34,20,39,0.00,2,,257
2013-1-8,32,19,6,32,20,5,100,94,80,29.74,29.59,29.49,10,7,0,36,17,45,0.02,4,Fog-Rain,218
2013-1-9,24,15,6,25,15,3,100,90,79,30.07,29.93,29.63,10,9,1,38,23,46,0.00,3,Rain,229
2013-1-10,33,27,19,30,26,19,100,92,81,29.85,29.63,29.55,10,9,2,26,17,28,0.00,1,,168
2013-1-11,17,8,0,18,7,-2,100,92,85,29.61,29.57,29.54,5,1,0,36,24,45,5.02,8,Rain-Snow,12
2013-1-12,0,-6,-13,-2,-10,-18,92,79,71,30.08,29.89,29.58,10,5,0,38,27,48,4.31,4,Rain-Snow,336
2013-1-13,1,-8,-16,0,-11,-22,92,82,76,30.12,30.07,30.01,10,9,4,16,8,21,0.00,4,Rain-Snow,289
2013-1-14,0,-9,-18,-4,-11,-22,92,81,76,30.16,30.11,30.02,10,10,4,15,10,,0.00,6,,235
2013-1-15,32,14,-4,32,7,-9,100,89,78,30.01,29.73,29.42,10,8,1,28,14,36,0.03,4,Rain-Snow,217
2013-1-16,26,12,-2,27,0,-13,100,82,60,30.18,29.91,29.49,10,9,2,26,17,32,0.00,7,Snow,11
2013-1-17,8,2,-4,7,-2,-9,92,84,78,30.31,30.20,29.96,10,9,2,23,13,31,0.00,5,Snow,266
2013-1-18,14,10,6,10,7,5,100,90,79,29.95,29.73,29.61,10,8,1,22,13,25,0.05,8,Snow,120
2013-1-19,19,2,-16,19,-4,-22,100,84,71,30.26,29.97,29.57,10,6,0,38,18,45,0.05,4,Fog-Rain-Snow,312
2013-1-20,-7,-12,-18,-11,-19,-26,84,77,70,30.32,30.25,30.21,10,5,0,29,16,37,0.00,3,Snow,297
2013-1-21,-13,-18,-23,-20,-25,-29,77,73,64,30.24,30.19,30.17,10,8,2,22,16,26,0.00,2,,303
2013-1-22,0,-14,-27,-4,-17,-33,85,76,66,30.21,30.13,30.05,10,10,10,14,8,,0.00,2,,258
2013-1-23,-2,-11,-20,-6,-19,-27,85,74,63,30.53,30.34,30.06,10,10,3,22,13,26,0.00,2,,354
2013-1-24,8,-5,-18,7,-13,-26,92,76,64,30.52,30.17,29.78,10,5,0,31,16,38,0.00,6,Fog-Snow,161
2013-1-25,8,-4,-16,5,-13,-20,92,78,70,30.20,30.06,29.78,10,7,0,36,18,40,0.12,5,Rain-Snow,304
2013-1-26,15,4,-7,12,2,-13,92,83,71,30.14,29.96,29.90,10,10,10,23,14,26,0.00,4,,175
2013-1-27,17,9,1,14,5,0,92,85,73,29.91,29.81,29.73,10,10,10,13,8,,0.00,0,,118
2013-1-28,19,12,5,19,13,1,100,95,85,29.74,29.72,29.69,10,6,0,16,7,,0.10,5,Fog-Snow,257
2013-1-29,17,12,6,18,13,3,100,95,85,29.94,29.78,29.67,10,7,1,21,12,24,0.07,8,Rain-Snow,342
2013-1-30,6,-5,-16,3,-9,-22,92,80,70,29.94,29.87,29.82,10,4,1,22,17,26,0.00,8,Rain-Snow,328
2013-1-31,-13,-20,-27,-20,-24,-35,84,74,69,30.17,30.09,29.91,10,5,1,23,19,29,0.00,4,Snow,311